ETHL

Laupheim Airport

Germany
METAR ETHL 220020Z 06009KT 4800 BR M06/M08 Q1015 GRN
Observed Flight Rules
Feb-22 @ 00:20 UTC (5 hours ago)
Wind Visibility Conditions
60° at 9 knots 4,796 meters
  • Mist
Temperatures Readings
Current -6°C / 21°F
Dewpoint -8°C / 18°F
Humidity 86%
Altimeter 29.97" Hg
Pressure 1015 hPa
Elevation 549
METAR ETHL 220020Z 06009KT 4800 BR M06/M08 Q1015 GRN
Observed Flight Rules
Feb-22 @ 00:20 UTC
(5 hours ago)
Wind Visibility
60° at 9 knots 4,796 meters
Conditions
  • Mist
Temperature Dewpoint
-6°C / 21°F -8°C / 18°F
Humidity Altimeter Pressure
86% 29.97" Hg 1015 hPa